Last 6 Hours

AM-Roundhouse Btm 6950'

15 Minute Data | America/Los_Angeles
as of 9/4/26 9:45 AM PDT
Date & Time Temp (°F) RH (%) Dew Pt (°F) Wet Bulb (°F) Wind Dir (°) Wind Spd (mph) Wind Gust (mph) WindChill (°F) Barometric Press (inHg) Snow Depth (HS) (in) Latest Rain (In) Daily Rain (In) Daily Min Temp (°F) Daily Max Temp (°F)
9/4/26 - 0930 44.8 91 42.4 43.4 SE | 137 6.3 21.9 40.7 29.99 3.3 0.02 0.24 44.4 45.8
9/4/26 - 0915 44.8 91 42.3 43.4 SSE | 154 5.1 15.0 38.8 29.99 2.7 0.01 0.22 44.4 45.8
9/4/26 - 0900 44.9 91 42.5 43.6 SE | 130 6.2 14.9 38.7 29.98 3.0 0.02 0.21 44.4 45.8
9/4/26 - 0845 44.8 92 42.6 43.6 SE | 127 5.2 13.9 40.8 29.99 2.9 0.02 0.19 44.4 45.8
9/4/26 - 0830 44.8 92 42.7 43.6 SE | 146 6.1 15.5 44.8 29.98 3.0 0.01 0.17 44.4 45.8
9/4/26 - 0815 45.0 92 42.6 43.7 SE | 139 7.6 31.3 45.0 29.98 2.8 0.01 0.16 44.4 45.8
9/4/26 - 0800 44.9 91 42.3 43.5 SE | 138 8.4 18.4 38.7 29.96 3.0 0.00 0.15 44.4 45.8
9/4/26 - 0745 44.9 90 42.2 43.4 SE | 144 7.8 16.9 39.5 29.98 3.2 0.01 0.15 44.4 45.8
9/4/26 - 0730 44.7 90 42.0 43.2 SE | 136 8.0 19.7 37.2 29.97 3.0 0.00 0.14 44.4 45.8
9/4/26 - 0715 45.1 88 41.8 43.2 SE | 140 7.0 18.9 45.1 29.96 2.9 0.00 0.14 44.4 45.8
9/4/26 - 0700 44.8 88 41.5 43.0 SSE | 148 8.3 17.9 40.2 29.95 2.9 0.01 0.14 44.4 45.8
9/4/26 - 0645 44.9 88 41.7 43.1 SE | 143 8.1 20.4 38.6 29.97 2.9 0.00 0.13 44.4 45.8
9/4/26 - 0630 44.6 91 42.0 43.1 SE | 138 7.5 20.1 39.4 29.97 2.7 0.00 0.13 44.4 45.8
9/4/26 - 0615 44.8 89 41.8 43.2 SE | 146 8.3 18.1 40.6 29.96 2.8 0.02 0.13 44.4 45.8
9/4/26 - 0600 44.5 91 42.0 43.1 SE | 138 8.1 19.2 41.5 29.95 2.6 0.00 0.11 44.4 45.8
9/4/26 - 0545 44.6 90 41.9 43.1 SE | 130 7.5 17.6 39.8 29.93 3.2 0.02 0.11 44.5 45.8
9/4/26 - 0530 44.6 91 42.3 43.3 SE | 142 7.6 18.8 40.5 29.94 2.7 0.03 0.09 44.6 45.8
9/4/26 - 0515 44.7 90 42.0 43.2 SE | 127 7.6 18.0 39.6 29.95 3.1 0.02 0.06 44.6 45.8
9/4/26 - 0500 44.7 91 42.2 43.3 SE | 129 6.3 20.9 43.5 29.95 3.2 0.01 0.04 44.6 45.8
9/4/26 - 0445 44.9 89 42.0 43.3 SE | 135 7.6 20.4 42.5 29.94 3.2 0.00 0.03 44.8 45.8
9/4/26 - 0430 45.0 89 42.0 43.4 SE | 140 5.8 16.4 41.0 29.95 3.2 0.01 0.03 44.8 45.8
9/4/26 - 0415 45.1 88 41.9 43.4 SE | 134 7.6 19.8 40.1 29.96 3.1 0.00 0.02 44.8 45.8
9/4/26 - 0400 45.1 88 41.6 43.2 SSE | 147 9.1 19.2 39.9 29.95 3.1 0.00 0.02 44.8 45.8
Max 45.1 92 42.7 43.7 - 9.1 31.3 45.1 29.99 3.3 0.03 0.24 44.8 45.8
Avg 44.8 90 42.1 43.3 - 7.3 18.8 40.7 29.96 3.0 0.01 - - -
Min 44.5 88 41.5 43.0 - 5.1 13.9 37.2 29.93 2.6 0.00 0.02 44.4 45.8
Total - - - - - - - - - - 0.22 - - -